sensor_id;sensor_type;location;lat;lon;timestamp;P1;durP1;ratioP1;P2;durP2;ratioP2
46675;SDS011;32412;51.478;5.694;2023-07-13T00:01:27;4.13;;;1.60;;
46675;SDS011;32412;51.478;5.694;2023-07-13T00:03:53;4.53;;;1.70;;
46675;SDS011;32412;51.478;5.694;2023-07-13T00:06:20;6.93;;;1.73;;
46675;SDS011;32412;51.478;5.694;2023-07-13T00:08:46;3.42;;;1.52;;
46675;SDS011;32412;51.478;5.694;2023-07-13T00:11:18;5.55;;;1.65;;
46675;SDS011;32412;51.478;5.694;2023-07-13T00:13:43;3.25;;;1.40;;
46675;SDS011;32412;51.478;5.694;2023-07-13T00:16:10;8.15;;;1.85;;
46675;SDS011;32412;51.478;5.694;2023-07-13T00:18:36;6.70;;;1.67;;
46675;SDS011;32412;51.478;5.694;2023-07-13T00:21:03;3.70;;;1.60;;
46675;SDS011;32412;51.478;5.694;2023-07-13T00:23:32;5.15;;;1.52;;
46675;SDS011;32412;51.478;5.694;2023-07-13T00:26:02;5.28;;;1.70;;
46675;SDS011;32412;51.478;5.694;2023-07-13T00:28:29;4.28;;;1.35;;
46675;SDS011;32412;51.478;5.694;2023-07-13T00:30:55;6.20;;;1.83;;
46675;SDS011;32412;51.478;5.694;2023-07-13T00:33:21;7.40;;;1.48;;
46675;SDS011;32412;51.478;5.694;2023-07-13T00:35:47;6.53;;;1.63;;
46675;SDS011;32412;51.478;5.694;2023-07-13T00:38:14;5.95;;;1.67;;
46675;SDS011;32412;51.478;5.694;2023-07-13T00:40:40;3.63;;;1.48;;
46675;SDS011;32412;51.478;5.694;2023-07-13T00:43:16;5.90;;;1.65;;
46675;SDS011;32412;51.478;5.694;2023-07-13T00:48:11;5.50;;;2.00;;
46675;SDS011;32412;51.478;5.694;2023-07-13T00:50:48;6.13;;;1.95;;
46675;SDS011;32412;51.478;5.694;2023-07-13T00:53:17;4.72;;;1.88;;
46675;SDS011;32412;51.478;5.694;2023-07-13T00:55:43;3.00;;;2.05;;
46675;SDS011;32412;51.478;5.694;2023-07-13T00:58:10;6.57;;;2.17;;
46675;SDS011;32412;51.478;5.694;2023-07-13T01:00:36;9.00;;;2.20;;
46675;SDS011;32412;51.478;5.694;2023-07-13T01:03:03;11.60;;;2.80;;
46675;SDS011;32412;51.478;5.694;2023-07-13T01:05:30;7.07;;;2.47;;
46675;SDS011;32412;51.478;5.694;2023-07-13T01:07:58;12.30;;;2.50;;
46675;SDS011;32412;51.478;5.694;2023-07-13T01:10:25;8.75;;;2.58;;
46675;SDS011;32412;51.478;5.694;2023-07-13T01:12:51;4.97;;;1.80;;
46675;SDS011;32412;51.478;5.694;2023-07-13T01:15:34;7.60;;;2.17;;
46675;SDS011;32412;51.478;5.694;2023-07-13T01:18:03;5.68;;;1.92;;
46675;SDS011;32412;51.478;5.694;2023-07-13T01:20:34;5.10;;;1.77;;
46675;SDS011;32412;51.478;5.694;2023-07-13T01:23:01;9.13;;;2.25;;
46675;SDS011;32412;51.478;5.694;2023-07-13T01:25:31;4.75;;;1.75;;
46675;SDS011;32412;51.478;5.694;2023-07-13T01:27:57;7.63;;;1.70;;
46675;SDS011;32412;51.478;5.694;2023-07-13T01:30:23;8.90;;;1.83;;
46675;SDS011;32412;51.478;5.694;2023-07-13T01:32:48;5.85;;;2.15;;
46675;SDS011;32412;51.478;5.694;2023-07-13T01:35:14;5.85;;;2.10;;
46675;SDS011;32412;51.478;5.694;2023-07-13T01:37:41;5.68;;;2.25;;
46675;SDS011;32412;51.478;5.694;2023-07-13T01:40:10;12.05;;;3.08;;
46675;SDS011;32412;51.478;5.694;2023-07-13T01:42:37;13.38;;;3.13;;
46675;SDS011;32412;51.478;5.694;2023-07-13T01:45:03;9.15;;;2.80;;
46675;SDS011;32412;51.478;5.694;2023-07-13T01:47:30;5.00;;;2.33;;
46675;SDS011;32412;51.478;5.694;2023-07-13T01:49:56;8.63;;;2.58;;
46675;SDS011;32412;51.478;5.694;2023-07-13T01:52:22;8.60;;;3.17;;
46675;SDS011;32412;51.478;5.694;2023-07-13T01:54:48;5.15;;;2.47;;
46675;SDS011;32412;51.478;5.694;2023-07-13T01:57:14;6.97;;;2.03;;
46675;SDS011;32412;51.478;5.694;2023-07-13T01:59:39;7.57;;;2.05;;
46675;SDS011;32412;51.478;5.694;2023-07-13T02:02:05;7.35;;;2.45;;
46675;SDS011;32412;51.478;5.694;2023-07-13T02:04:31;4.50;;;1.90;;
46675;SDS011;32412;51.478;5.694;2023-07-13T02:06:57;10.10;;;2.20;;
46675;SDS011;32412;51.478;5.694;2023-07-13T02:09:23;4.57;;;1.65;;
46675;SDS011;32412;51.478;5.694;2023-07-13T02:11:48;5.32;;;1.90;;
46675;SDS011;32412;51.478;5.694;2023-07-13T02:14:14;6.68;;;1.95;;
46675;SDS011;32412;51.478;5.694;2023-07-13T02:16:40;6.93;;;1.83;;
46675;SDS011;32412;51.478;5.694;2023-07-13T02:19:07;6.18;;;2.28;;
46675;SDS011;32412;51.478;5.694;2023-07-13T02:21:32;4.57;;;2.03;;
46675;SDS011;32412;51.478;5.694;2023-07-13T02:23:58;5.35;;;1.98;;
46675;SDS011;32412;51.478;5.694;2023-07-13T02:26:24;6.97;;;2.05;;
46675;SDS011;32412;51.478;5.694;2023-07-13T02:28:51;4.38;;;1.60;;
46675;SDS011;32412;51.478;5.694;2023-07-13T02:31:16;4.47;;;1.70;;
46675;SDS011;32412;51.478;5.694;2023-07-13T02:33:42;7.65;;;1.95;;
46675;SDS011;32412;51.478;5.694;2023-07-13T02:36:08;9.32;;;2.35;;
46675;SDS011;32412;51.478;5.694;2023-07-13T02:38:35;6.50;;;2.10;;
46675;SDS011;32412;51.478;5.694;2023-07-13T02:41:05;9.75;;;2.10;;
46675;SDS011;32412;51.478;5.694;2023-07-13T02:43:33;6.75;;;2.20;;
46675;SDS011;32412;51.478;5.694;2023-07-13T02:45:59;6.57;;;2.15;;
46675;SDS011;32412;51.478;5.694;2023-07-13T02:48:32;5.03;;;1.88;;
46675;SDS011;32412;51.478;5.694;2023-07-13T02:50:58;6.28;;;2.03;;
46675;SDS011;32412;51.478;5.694;2023-07-13T02:53:24;8.32;;;2.17;;
46675;SDS011;32412;51.478;5.694;2023-07-13T02:55:50;7.93;;;2.25;;
46675;SDS011;32412;51.478;5.694;2023-07-13T02:58:15;4.63;;;2.15;;
46675;SDS011;32412;51.478;5.694;2023-07-13T03:00:42;8.57;;;2.38;;
46675;SDS011;32412;51.478;5.694;2023-07-13T03:03:08;7.28;;;2.33;;
46675;SDS011;32412;51.478;5.694;2023-07-13T03:05:34;3.95;;;2.10;;
46675;SDS011;32412;51.478;5.694;2023-07-13T03:08:02;6.28;;;2.13;;
46675;SDS011;32412;51.478;5.694;2023-07-13T03:10:29;6.13;;;2.30;;
46675;SDS011;32412;51.478;5.694;2023-07-13T03:12:54;4.97;;;2.00;;
46675;SDS011;32412;51.478;5.694;2023-07-13T03:15:20;7.32;;;2.22;;
46675;SDS011;32412;51.478;5.694;2023-07-13T03:17:45;5.28;;;2.05;;
46675;SDS011;32412;51.478;5.694;2023-07-13T03:20:11;7.60;;;2.63;;
46675;SDS011;32412;51.478;5.694;2023-07-13T03:22:37;9.98;;;2.63;;
46675;SDS011;32412;51.478;5.694;2023-07-13T03:25:03;9.52;;;2.13;;
46675;SDS011;32412;51.478;5.694;2023-07-13T03:27:29;13.23;;;2.40;;
46675;SDS011;32412;51.478;5.694;2023-07-13T03:29:55;9.07;;;2.30;;
46675;SDS011;32412;51.478;5.694;2023-07-13T03:32:20;8.73;;;2.45;;
46675;SDS011;32412;51.478;5.694;2023-07-13T03:34:46;5.70;;;2.10;;
46675;SDS011;32412;51.478;5.694;2023-07-13T03:37:12;6.25;;;2.33;;
46675;SDS011;32412;51.478;5.694;2023-07-13T03:39:37;6.65;;;2.40;;
46675;SDS011;32412;51.478;5.694;2023-07-13T03:42:03;11.60;;;2.70;;
46675;SDS011;32412;51.478;5.694;2023-07-13T03:44:29;8.13;;;2.20;;
46675;SDS011;32412;51.478;5.694;2023-07-13T03:46:55;7.68;;;2.45;;
46675;SDS011;32412;51.478;5.694;2023-07-13T03:49:20;8.38;;;2.42;;
46675;SDS011;32412;51.478;5.694;2023-07-13T03:51:46;8.27;;;2.50;;
46675;SDS011;32412;51.478;5.694;2023-07-13T03:54:12;9.52;;;2.83;;
46675;SDS011;32412;51.478;5.694;2023-07-13T03:56:37;9.85;;;3.03;;
46675;SDS011;32412;51.478;5.694;2023-07-13T03:59:03;9.70;;;2.97;;
46675;SDS011;32412;51.478;5.694;2023-07-13T04:01:29;11.30;;;3.20;;
46675;SDS011;32412;51.478;5.694;2023-07-13T04:03:54;17.20;;;3.08;;
46675;SDS011;32412;51.478;5.694;2023-07-13T04:06:21;13.13;;;2.90;;
46675;SDS011;32412;51.478;5.694;2023-07-13T04:08:51;6.05;;;2.85;;
46675;SDS011;32412;51.478;5.694;2023-07-13T04:11:19;9.20;;;3.28;;
46675;SDS011;32412;51.478;5.694;2023-07-13T04:13:45;11.43;;;3.50;;
46675;SDS011;32412;51.478;5.694;2023-07-13T04:16:12;9.70;;;3.30;;
46675;SDS011;32412;51.478;5.694;2023-07-13T04:18:39;10.65;;;3.38;;
46675;SDS011;32412;51.478;5.694;2023-07-13T04:21:04;8.18;;;3.40;;
46675;SDS011;32412;51.478;5.694;2023-07-13T04:23:30;13.57;;;4.03;;
46675;SDS011;32412;51.478;5.694;2023-07-13T04:25:56;8.90;;;3.30;;
46675;SDS011;32412;51.478;5.694;2023-07-13T04:28:22;8.90;;;3.17;;
46675;SDS011;32412;51.478;5.694;2023-07-13T04:30:49;9.65;;;3.15;;
46675;SDS011;32412;51.478;5.694;2023-07-13T04:33:15;8.68;;;3.50;;
46675;SDS011;32412;51.478;5.694;2023-07-13T04:35:47;11.15;;;3.55;;
46675;SDS011;32412;51.478;5.694;2023-07-13T04:38:21;12.35;;;3.72;;
46675;SDS011;32412;51.478;5.694;2023-07-13T04:40:49;10.98;;;3.30;;
46675;SDS011;32412;51.478;5.694;2023-07-13T04:43:16;8.48;;;3.35;;
46675;SDS011;32412;51.478;5.694;2023-07-13T04:45:41;15.20;;;3.45;;
46675;SDS011;32412;51.478;5.694;2023-07-13T04:48:08;9.75;;;3.65;;
46675;SDS011;32412;51.478;5.694;2023-07-13T04:50:35;8.35;;;3.67;;
46675;SDS011;32412;51.478;5.694;2023-07-13T04:53:01;11.57;;;3.63;;
46675;SDS011;32412;51.478;5.694;2023-07-13T04:55:27;7.15;;;3.85;;
46675;SDS011;32412;51.478;5.694;2023-07-13T04:57:55;12.75;;;4.05;;
46675;SDS011;32412;51.478;5.694;2023-07-13T05:00:23;12.25;;;3.85;;
46675;SDS011;32412;51.478;5.694;2023-07-13T05:02:49;14.50;;;4.20;;
46675;SDS011;32412;51.478;5.694;2023-07-13T05:05:16;9.73;;;4.10;;
46675;SDS011;32412;51.478;5.694;2023-07-13T05:07:41;13.50;;;4.90;;
46675;SDS011;32412;51.478;5.694;2023-07-13T05:10:08;10.88;;;4.18;;
46675;SDS011;32412;51.478;5.694;2023-07-13T05:12:34;18.95;;;4.72;;
46675;SDS011;32412;51.478;5.694;2023-07-13T05:15:01;14.80;;;4.45;;
46675;SDS011;32412;51.478;5.694;2023-07-13T05:17:27;11.57;;;4.88;;
46675;SDS011;32412;51.478;5.694;2023-07-13T05:19:53;12.52;;;4.45;;
46675;SDS011;32412;51.478;5.694;2023-07-13T05:22:19;12.68;;;4.85;;
46675;SDS011;32412;51.478;5.694;2023-07-13T05:24:44;11.27;;;4.55;;
46675;SDS011;32412;51.478;5.694;2023-07-13T05:27:10;14.93;;;4.53;;
46675;SDS011;32412;51.478;5.694;2023-07-13T05:29:36;9.98;;;4.22;;
46675;SDS011;32412;51.478;5.694;2023-07-13T05:32:01;13.73;;;4.88;;
46675;SDS011;32412;51.478;5.694;2023-07-13T05:34:28;14.05;;;4.90;;
46675;SDS011;32412;51.478;5.694;2023-07-13T05:36:54;13.73;;;4.88;;
46675;SDS011;32412;51.478;5.694;2023-07-13T05:39:20;17.73;;;4.70;;
46675;SDS011;32412;51.478;5.694;2023-07-13T05:41:45;17.85;;;5.60;;
46675;SDS011;32412;51.478;5.694;2023-07-13T05:44:11;18.90;;;5.63;;
46675;SDS011;32412;51.478;5.694;2023-07-13T05:46:37;17.50;;;6.20;;
46675;SDS011;32412;51.478;5.694;2023-07-13T05:49:02;19.52;;;5.60;;
46675;SDS011;32412;51.478;5.694;2023-07-13T05:51:29;17.38;;;5.47;;
46675;SDS011;32412;51.478;5.694;2023-07-13T05:53:54;15.23;;;5.63;;
46675;SDS011;32412;51.478;5.694;2023-07-13T05:56:20;16.38;;;6.47;;
46675;SDS011;32412;51.478;5.694;2023-07-13T05:58:47;18.02;;;6.32;;
46675;SDS011;32412;51.478;5.694;2023-07-13T06:01:14;21.33;;;6.80;;
46675;SDS011;32412;51.478;5.694;2023-07-13T06:03:40;21.55;;;6.38;;
46675;SDS011;32412;51.478;5.694;2023-07-13T06:06:07;23.13;;;6.50;;
46675;SDS011;32412;51.478;5.694;2023-07-13T06:08:34;16.90;;;6.30;;
46675;SDS011;32412;51.478;5.694;2023-07-13T06:11:04;14.10;;;5.45;;
46675;SDS011;32412;51.478;5.694;2023-07-13T06:13:37;20.65;;;5.82;;
46675;SDS011;32412;51.478;5.694;2023-07-13T06:16:03;18.42;;;5.35;;
46675;SDS011;32412;51.478;5.694;2023-07-13T06:18:30;15.30;;;5.53;;
46675;SDS011;32412;51.478;5.694;2023-07-13T06:20:57;11.25;;;4.85;;
46675;SDS011;32412;51.478;5.694;2023-07-13T06:23:22;15.20;;;5.43;;
46675;SDS011;32412;51.478;5.694;2023-07-13T06:25:48;12.52;;;5.45;;
46675;SDS011;32412;51.478;5.694;2023-07-13T06:28:14;12.80;;;4.90;;
46675;SDS011;32412;51.478;5.694;2023-07-13T06:30:40;15.95;;;5.72;;
46675;SDS011;32412;51.478;5.694;2023-07-13T06:33:05;18.38;;;4.93;;
46675;SDS011;32412;51.478;5.694;2023-07-13T06:35:31;17.75;;;4.72;;
46675;SDS011;32412;51.478;5.694;2023-07-13T06:37:57;18.02;;;5.68;;
46675;SDS011;32412;51.478;5.694;2023-07-13T06:40:23;18.05;;;5.25;;
46675;SDS011;32412;51.478;5.694;2023-07-13T06:42:48;13.82;;;5.28;;
46675;SDS011;32412;51.478;5.694;2023-07-13T06:45:14;16.88;;;5.45;;
46675;SDS011;32412;51.478;5.694;2023-07-13T06:47:39;21.40;;;6.00;;
46675;SDS011;32412;51.478;5.694;2023-07-13T06:50:06;19.80;;;6.03;;
46675;SDS011;32412;51.478;5.694;2023-07-13T06:52:32;14.20;;;5.95;;
46675;SDS011;32412;51.478;5.694;2023-07-13T06:54:57;20.33;;;6.68;;
46675;SDS011;32412;51.478;5.694;2023-07-13T06:57:23;17.10;;;6.13;;
46675;SDS011;32412;51.478;5.694;2023-07-13T06:59:49;16.60;;;6.15;;
46675;SDS011;32412;51.478;5.694;2023-07-13T07:02:14;17.25;;;6.13;;
46675;SDS011;32412;51.478;5.694;2023-07-13T07:04:40;15.70;;;5.93;;
46675;SDS011;32412;51.478;5.694;2023-07-13T07:07:06;17.60;;;6.68;;
46675;SDS011;32412;51.478;5.694;2023-07-13T07:09:31;11.52;;;5.45;;
46675;SDS011;32412;51.478;5.694;2023-07-13T07:11:57;20.25;;;6.40;;
46675;SDS011;32412;51.478;5.694;2023-07-13T07:14:23;15.73;;;6.43;;
46675;SDS011;32412;51.478;5.694;2023-07-13T07:16:49;14.07;;;5.75;;
46675;SDS011;32412;51.478;5.694;2023-07-13T07:19:15;13.25;;;5.30;;
46675;SDS011;32412;51.478;5.694;2023-07-13T07:21:41;12.88;;;5.63;;
46675;SDS011;32412;51.478;5.694;2023-07-13T07:24:07;12.05;;;4.85;;
46675;SDS011;32412;51.478;5.694;2023-07-13T07:26:33;20.08;;;6.00;;
46675;SDS011;32412;51.478;5.694;2023-07-13T07:28:58;22.58;;;6.30;;
46675;SDS011;32412;51.478;5.694;2023-07-13T07:31:24;13.45;;;5.32;;
46675;SDS011;32412;51.478;5.694;2023-07-13T07:33:50;18.13;;;5.40;;
46675;SDS011;32412;51.478;5.694;2023-07-13T07:36:16;17.55;;;4.97;;
46675;SDS011;32412;51.478;5.694;2023-07-13T07:38:42;13.82;;;5.22;;
46675;SDS011;32412;51.478;5.694;2023-07-13T07:41:08;13.85;;;4.90;;
46675;SDS011;32412;51.478;5.694;2023-07-13T07:43:34;15.23;;;5.30;;
46675;SDS011;32412;51.478;5.694;2023-07-13T07:46:01;15.00;;;5.20;;
46675;SDS011;32412;51.478;5.694;2023-07-13T07:48:27;17.20;;;5.10;;
46675;SDS011;32412;51.478;5.694;2023-07-13T07:50:53;12.77;;;4.90;;
46675;SDS011;32412;51.478;5.694;2023-07-13T07:53:18;16.35;;;5.13;;
46675;SDS011;32412;51.478;5.694;2023-07-13T07:55:44;18.20;;;5.25;;
46675;SDS011;32412;51.478;5.694;2023-07-13T07:58:10;12.60;;;5.00;;
46675;SDS011;32412;51.478;5.694;2023-07-13T08:00:36;15.32;;;5.22;;
46675;SDS011;32412;51.478;5.694;2023-07-13T08:03:02;10.95;;;4.95;;
46675;SDS011;32412;51.478;5.694;2023-07-13T08:05:28;15.13;;;5.32;;
46675;SDS011;32412;51.478;5.694;2023-07-13T08:07:54;18.20;;;5.82;;
46675;SDS011;32412;51.478;5.694;2023-07-13T08:10:20;13.02;;;4.68;;
46675;SDS011;32412;51.478;5.694;2023-07-13T08:12:45;13.98;;;4.78;;
46675;SDS011;32412;51.478;5.694;2023-07-13T08:15:12;11.80;;;4.15;;
46675;SDS011;32412;51.478;5.694;2023-07-13T08:17:40;11.23;;;4.10;;
46675;SDS011;32412;51.478;5.694;2023-07-13T08:20:06;11.57;;;4.25;;
46675;SDS011;32412;51.478;5.694;2023-07-13T08:22:34;11.18;;;4.13;;
46675;SDS011;32412;51.478;5.694;2023-07-13T08:25:00;12.52;;;4.28;;
46675;SDS011;32412;51.478;5.694;2023-07-13T08:27:27;15.13;;;4.07;;
46675;SDS011;32412;51.478;5.694;2023-07-13T08:29:53;18.30;;;4.30;;
46675;SDS011;32412;51.478;5.694;2023-07-13T08:32:20;9.68;;;3.78;;
46675;SDS011;32412;51.478;5.694;2023-07-13T08:34:46;10.20;;;3.80;;
46675;SDS011;32412;51.478;5.694;2023-07-13T08:37:12;11.25;;;3.50;;
46675;SDS011;32412;51.478;5.694;2023-07-13T08:39:38;10.25;;;3.10;;
46675;SDS011;32412;51.478;5.694;2023-07-13T08:42:05;10.23;;;3.15;;
46675;SDS011;32412;51.478;5.694;2023-07-13T08:47:09;9.50;;;3.20;;
46675;SDS011;32412;51.478;5.694;2023-07-13T08:49:37;10.75;;;3.13;;
46675;SDS011;32412;51.478;5.694;2023-07-13T08:52:38;9.60;;;3.38;;
46675;SDS011;32412;51.478;5.694;2023-07-13T08:54:55;7.40;;;3.00;;
46675;SDS011;32412;51.478;5.694;2023-07-13T08:57:27;9.52;;;3.50;;
46675;SDS011;32412;51.478;5.694;2023-07-13T08:59:58;8.52;;;3.10;;
46675;SDS011;32412;51.478;5.694;2023-07-13T09:02:25;5.88;;;3.05;;
46675;SDS011;32412;51.478;5.694;2023-07-13T09:07:52;9.32;;;2.88;;
46675;SDS011;32412;51.478;5.694;2023-07-13T09:10:28;7.65;;;2.50;;
46675;SDS011;32412;51.478;5.694;2023-07-13T09:16:07;5.95;;;2.72;;
46675;SDS011;32412;51.478;5.694;2023-07-13T09:18:35;11.50;;;2.88;;
46675;SDS011;32412;51.478;5.694;2023-07-13T09:21:14;6.55;;;2.85;;
46675;SDS011;32412;51.478;5.694;2023-07-13T09:23:43;10.88;;;3.17;;
46675;SDS011;32412;51.478;5.694;2023-07-13T09:26:13;6.13;;;2.67;;
46675;SDS011;32412;51.478;5.694;2023-07-13T09:28:44;8.48;;;2.80;;
46675;SDS011;32412;51.478;5.694;2023-07-13T09:31:32;5.30;;;2.75;;
46675;SDS011;32412;51.478;5.694;2023-07-13T09:34:01;3.85;;;1.92;;
46675;SDS011;32412;51.478;5.694;2023-07-13T09:36:28;7.10;;;2.20;;
46675;SDS011;32412;51.478;5.694;2023-07-13T09:39:04;9.40;;;3.03;;
46675;SDS011;32412;51.478;5.694;2023-07-13T09:46:34;4.82;;;2.17;;
46675;SDS011;32412;51.478;5.694;2023-07-13T09:49:00;5.15;;;2.38;;
46675;SDS011;32412;51.478;5.694;2023-07-13T09:51:26;4.68;;;2.10;;
46675;SDS011;32412;51.478;5.694;2023-07-13T09:53:51;10.48;;;2.58;;
46675;SDS011;32412;51.478;5.694;2023-07-13T09:56:26;4.75;;;1.95;;
46675;SDS011;32412;51.478;5.694;2023-07-13T09:58:53;8.07;;;2.47;;
46675;SDS011;32412;51.478;5.694;2023-07-13T10:01:32;5.72;;;1.60;;
46675;SDS011;32412;51.478;5.694;2023-07-13T10:04:00;4.55;;;2.08;;
46675;SDS011;32412;51.478;5.694;2023-07-13T10:06:27;9.45;;;2.55;;
46675;SDS011;32412;51.478;5.694;2023-07-13T10:08:52;8.23;;;1.98;;
46675;SDS011;32412;51.478;5.694;2023-07-13T10:11:28;5.43;;;1.88;;
46675;SDS011;32412;51.478;5.694;2023-07-13T10:13:56;6.97;;;2.20;;
46675;SDS011;32412;51.478;5.694;2023-07-13T10:16:25;5.30;;;2.47;;
46675;SDS011;32412;51.478;5.694;2023-07-13T10:18:57;6.80;;;2.08;;
46675;SDS011;32412;51.478;5.694;2023-07-13T10:21:31;4.85;;;1.95;;
46675;SDS011;32412;51.478;5.694;2023-07-13T10:24:15;4.90;;;2.00;;
46675;SDS011;32412;51.478;5.694;2023-07-13T10:26:48;6.68;;;2.10;;
46675;SDS011;32412;51.478;5.694;2023-07-13T10:29:29;6.20;;;2.05;;
46675;SDS011;32412;51.478;5.694;2023-07-13T10:32:01;4.93;;;1.52;;
46675;SDS011;32412;51.478;5.694;2023-07-13T10:34:27;4.40;;;2.00;;
46675;SDS011;32412;51.478;5.694;2023-07-13T10:36:53;6.03;;;1.92;;
46675;SDS011;32412;51.478;5.694;2023-07-13T10:39:21;6.38;;;2.10;;
46675;SDS011;32412;51.478;5.694;2023-07-13T10:41:52;4.18;;;1.60;;
46675;SDS011;32412;51.478;5.694;2023-07-13T10:44:24;4.07;;;1.70;;
46675;SDS011;32412;51.478;5.694;2023-07-13T10:47:03;7.63;;;2.33;;
46675;SDS011;32412;51.478;5.694;2023-07-13T10:49:33;8.07;;;1.90;;
46675;SDS011;32412;51.478;5.694;2023-07-13T10:52:01;6.78;;;2.03;;
46675;SDS011;32412;51.478;5.694;2023-07-13T10:54:29;4.60;;;1.90;;
46675;SDS011;32412;51.478;5.694;2023-07-13T10:59:42;5.07;;;1.70;;
46675;SDS011;32412;51.478;5.694;2023-07-13T11:02:25;3.80;;;1.33;;
46675;SDS011;32412;51.478;5.694;2023-07-13T11:04:53;6.65;;;1.92;;
46675;SDS011;32412;51.478;5.694;2023-07-13T11:07:23;5.57;;;1.90;;
46675;SDS011;32412;51.478;5.694;2023-07-13T11:10:02;4.57;;;1.70;;
46675;SDS011;32412;51.478;5.694;2023-07-13T11:12:50;5.38;;;2.00;;
46675;SDS011;32412;51.478;5.694;2023-07-13T11:15:32;6.95;;;2.00;;
46675;SDS011;32412;51.478;5.694;2023-07-13T11:18:19;12.00;;;2.97;;
46675;SDS011;32412;51.478;5.694;2023-07-13T11:20:46;5.88;;;2.53;;
46675;SDS011;32412;51.478;5.694;2023-07-13T11:25:41;6.07;;;2.55;;
46675;SDS011;32412;51.478;5.694;2023-07-13T11:30:49;6.80;;;2.35;;
46675;SDS011;32412;51.478;5.694;2023-07-13T11:33:44;4.85;;;2.40;;
46675;SDS011;32412;51.478;5.694;2023-07-13T11:36:21;7.82;;;2.58;;
46675;SDS011;32412;51.478;5.694;2023-07-13T11:39:03;8.13;;;1.98;;
46675;SDS011;32412;51.478;5.694;2023-07-13T11:41:42;7.10;;;2.30;;
46675;SDS011;32412;51.478;5.694;2023-07-13T11:44:22;10.30;;;2.38;;
46675;SDS011;32412;51.478;5.694;2023-07-13T11:46:50;4.20;;;1.98;;
46675;SDS011;32412;51.478;5.694;2023-07-13T11:49:19;6.72;;;2.30;;
46675;SDS011;32412;51.478;5.694;2023-07-13T11:51:47;5.20;;;1.95;;
46675;SDS011;32412;51.478;5.694;2023-07-13T11:56:51;8.25;;;2.35;;
46675;SDS011;32412;51.478;5.694;2023-07-13T11:59:18;6.57;;;1.90;;
46675;SDS011;32412;51.478;5.694;2023-07-13T12:01:49;5.30;;;1.92;;
46675;SDS011;32412;51.478;5.694;2023-07-13T12:04:29;5.57;;;2.30;;
46675;SDS011;32412;51.478;5.694;2023-07-13T12:06:58;4.13;;;1.92;;
46675;SDS011;32412;51.478;5.694;2023-07-13T12:09:30;6.70;;;1.90;;
46675;SDS011;32412;51.478;5.694;2023-07-13T12:11:56;5.85;;;1.90;;
46675;SDS011;32412;51.478;5.694;2023-07-13T12:14:25;7.10;;;2.08;;
46675;SDS011;32412;51.478;5.694;2023-07-13T12:16:51;4.57;;;1.73;;
46675;SDS011;32412;51.478;5.694;2023-07-13T12:19:20;6.93;;;2.40;;
46675;SDS011;32412;51.478;5.694;2023-07-13T12:21:47;6.72;;;2.17;;
46675;SDS011;32412;51.478;5.694;2023-07-13T12:24:15;7.53;;;2.58;;
46675;SDS011;32412;51.478;5.694;2023-07-13T12:26:43;7.00;;;2.33;;
46675;SDS011;32412;51.478;5.694;2023-07-13T12:29:15;7.63;;;2.50;;
46675;SDS011;32412;51.478;5.694;2023-07-13T12:31:43;8.40;;;2.78;;
46675;SDS011;32412;51.478;5.694;2023-07-13T12:36:40;4.82;;;2.78;;
46675;SDS011;32412;51.478;5.694;2023-07-13T12:39:34;8.15;;;2.97;;
46675;SDS011;32412;51.478;5.694;2023-07-13T12:42:31;8.15;;;3.30;;
46675;SDS011;32412;51.478;5.694;2023-07-13T12:47:27;8.60;;;2.80;;
46675;SDS011;32412;51.478;5.694;2023-07-13T12:49:54;9.70;;;3.00;;
46675;SDS011;32412;51.478;5.694;2023-07-13T12:52:32;5.40;;;2.58;;
46675;SDS011;32412;51.478;5.694;2023-07-13T12:55:06;7.95;;;2.72;;
46675;SDS011;32412;51.478;5.694;2023-07-13T12:57:40;9.38;;;3.20;;
46675;SDS011;32412;51.478;5.694;2023-07-13T13:00:24;4.93;;;2.88;;
46675;SDS011;32412;51.478;5.694;2023-07-13T13:02:58;5.88;;;2.72;;
46675;SDS011;32412;51.478;5.694;2023-07-13T13:05:30;9.18;;;3.28;;
46675;SDS011;32412;51.478;5.694;2023-07-13T13:07:58;6.82;;;3.05;;
46675;SDS011;32412;51.478;5.694;2023-07-13T13:10:25;6.40;;;3.30;;
46675;SDS011;32412;51.478;5.694;2023-07-13T13:12:51;6.38;;;2.30;;
46675;SDS011;32412;51.478;5.694;2023-07-13T13:15:18;4.97;;;2.25;;
46675;SDS011;32412;51.478;5.694;2023-07-13T13:17:43;6.93;;;1.92;;
46675;SDS011;32412;51.478;5.694;2023-07-13T13:20:16;5.07;;;1.48;;
46675;SDS011;32412;51.478;5.694;2023-07-13T13:22:46;4.82;;;1.73;;
46675;SDS011;32412;51.478;5.694;2023-07-13T13:25:13;4.85;;;1.77;;
46675;SDS011;32412;51.478;5.694;2023-07-13T13:27:43;4.15;;;1.70;;
46675;SDS011;32412;51.478;5.694;2023-07-13T13:30:14;4.43;;;1.60;;
46675;SDS011;32412;51.478;5.694;2023-07-13T13:32:42;3.28;;;1.70;;
46675;SDS011;32412;51.478;5.694;2023-07-13T13:35:17;4.32;;;1.77;;
46675;SDS011;32412;51.478;5.694;2023-07-13T13:37:45;2.20;;;1.52;;
46675;SDS011;32412;51.478;5.694;2023-07-13T13:40:21;4.43;;;2.00;;
46675;SDS011;32412;51.478;5.694;2023-07-13T13:42:52;6.13;;;2.20;;
46675;SDS011;32412;51.478;5.694;2023-07-13T13:45:20;5.68;;;2.15;;
46675;SDS011;32412;51.478;5.694;2023-07-13T13:47:46;6.55;;;2.30;;
46675;SDS011;32412;51.478;5.694;2023-07-13T13:50:14;5.82;;;2.75;;
46675;SDS011;32412;51.478;5.694;2023-07-13T13:52:42;9.27;;;2.90;;
46675;SDS011;32412;51.478;5.694;2023-07-13T13:55:12;7.43;;;2.88;;
46675;SDS011;32412;51.478;5.694;2023-07-13T13:57:44;5.40;;;2.65;;
46675;SDS011;32412;51.478;5.694;2023-07-13T14:00:11;5.97;;;2.50;;
46675;SDS011;32412;51.478;5.694;2023-07-13T14:02:39;4.25;;;2.45;;
46675;SDS011;32412;51.478;5.694;2023-07-13T14:05:06;7.72;;;2.80;;
46675;SDS011;32412;51.478;5.694;2023-07-13T14:07:36;5.82;;;2.60;;
46675;SDS011;32412;51.478;5.694;2023-07-13T14:10:08;8.10;;;2.53;;
46675;SDS011;32412;51.478;5.694;2023-07-13T14:12:44;3.92;;;2.40;;
46675;SDS011;32412;51.478;5.694;2023-07-13T14:15:28;5.97;;;2.80;;
46675;SDS011;32412;51.478;5.694;2023-07-13T14:17:56;4.28;;;2.13;;
46675;SDS011;32412;51.478;5.694;2023-07-13T14:20:23;5.25;;;2.10;;
46675;SDS011;32412;51.478;5.694;2023-07-13T14:22:50;5.15;;;2.28;;
46675;SDS011;32412;51.478;5.694;2023-07-13T14:25:20;3.60;;;2.10;;
46675;SDS011;32412;51.478;5.694;2023-07-13T14:27:46;3.67;;;2.10;;
46675;SDS011;32412;51.478;5.694;2023-07-13T14:30:18;3.53;;;2.00;;
46675;SDS011;32412;51.478;5.694;2023-07-13T14:32:45;5.70;;;2.47;;
46675;SDS011;32412;51.478;5.694;2023-07-13T14:35:15;3.97;;;1.98;;
46675;SDS011;32412;51.478;5.694;2023-07-13T14:37:43;5.35;;;2.15;;
46675;SDS011;32412;51.478;5.694;2023-07-13T14:40:14;5.05;;;2.47;;
46675;SDS011;32412;51.478;5.694;2023-07-13T14:42:46;3.30;;;2.03;;
46675;SDS011;32412;51.478;5.694;2023-07-13T14:45:16;4.70;;;2.05;;
46675;SDS011;32412;51.478;5.694;2023-07-13T14:47:43;5.68;;;2.03;;
46675;SDS011;32412;51.478;5.694;2023-07-13T14:50:17;3.22;;;1.95;;
46675;SDS011;32412;51.478;5.694;2023-07-13T14:52:44;5.05;;;1.70;;
46675;SDS011;32412;51.478;5.694;2023-07-13T14:55:12;2.40;;;1.63;;
46675;SDS011;32412;51.478;5.694;2023-07-13T14:57:39;1.92;;;1.67;;
46675;SDS011;32412;51.478;5.694;2023-07-13T15:00:15;4.35;;;1.75;;
46675;SDS011;32412;51.478;5.694;2023-07-13T15:02:52;2.10;;;1.60;;
46675;SDS011;32412;51.478;5.694;2023-07-13T15:05:23;2.47;;;1.50;;
46675;SDS011;32412;51.478;5.694;2023-07-13T15:07:52;1.88;;;1.30;;
46675;SDS011;32412;51.478;5.694;2023-07-13T15:10:19;4.13;;;1.50;;
46675;SDS011;32412;51.478;5.694;2023-07-13T15:12:47;3.95;;;1.70;;
46675;SDS011;32412;51.478;5.694;2023-07-13T15:15:13;2.25;;;1.27;;
46675;SDS011;32412;51.478;5.694;2023-07-13T15:17:43;3.45;;;1.30;;
46675;SDS011;32412;51.478;5.694;2023-07-13T15:22:36;5.85;;;1.65;;
46675;SDS011;32412;51.478;5.694;2023-07-13T15:25:02;3.50;;;1.27;;